MU53 weather

Twin Rivers Regional Medical Center Heliport
Kennett, Missouri, United States

Public forecast

Using degrees Fahrenheit for public forecast. Weather courtesy of forecast.io.

Closest aviation weather report (METAR) to Twin Rivers Regional Medical Center Heliport

Closest report is Kennett Memorial Airport, 0.6 nm (1.2 km) SSE. Retrieved 2020/07/08 00:15 UTC (7 minutes ago):

KTKX 080015Z AUTO 34006KT 10SM CLR 28/23 A2990 RMK AO2

Closest aviation forecast (TAF) to Twin Rivers Regional Medical Center Heliport

Closest forecast is Jonesboro Municipal Airport, 38.1 nm (70.6 km) SW. Retrieved 2020-07-08 00:24 UTC (0 seconds ago):

TAF KJBR 072322Z 0800/0824 17005KT P6SM SCT250 FM081500 16006KT P6SM SCT025 FM082100 15006KT P6SM VCTS SCT025CB BKN050 AMD NOT SKED